Forest Grove, MT

12:58 PM MDT on September 01, 2014 (GMT -0600)
Billings Logan International | Change Station
CLOSE
Current Station
Airport
Location: Billings,
Elevation: 3570 ft
Nearby Weather Stations

Elev 3570 ft 45.81 °N, 108.54 °W | Updated 5 minutes ago

Scattered Clouds
Scattered Clouds
67 °F
Feels Like 67 °F
N
13
Wind Variable Wind from WNW

Today
High -- | Low -- °F
--% Chance of Precip.
Yesterday
High -- | Low -- °F
Precip. -- in
6:35 AM 7:55 PM
Waxing Crescent, 43% visible
Pressure 29.92 in
Visibility 10.0 miles
Clouds Scattered Clouds 6000 ft
Scattered Clouds 16000 ft
Dew Point 35 °F
Humidity 31%
Rainfall 0.00 in
Snow Depth Not available.
UV 7 out of 12
Pollen 7.20 out of 12
Air Quality Not available.
Flu Activity Not available.
METAR KBIL 011853Z 30011KT 10SM SCT060 SCT160 19/02 A2998 RMK AO2 SLP130 T01940017

More Conditions Fewer Conditions

Pressure 29.92 in
Visibility 10.0 miles
Clouds Scattered Clouds 6000 ft
Scattered Clouds 16000 ft
Dew Point 35 °F
Humidity 31%
Rainfall 0.00 in
Snow Depth Not available.
UV 7 out of 12
Pollen 7.20 out of 12
Air Quality Not available.
Flu Activity Not available.
METAR KBIL 011853Z 30011KT 10SM SCT060 SCT160 19/02 A2998 RMK AO2 SLP130 T01940017

More Conditions Fewer Conditions

10-Day Weather Forecast

Almanac

Astronomy

Sep. 01, 2014 Rise Set
Actual Time 6:35 AM MDT 7:55 PM MDT
Civil Twilight 6:04 AM MDT 8:26 PM MDT
Nautical Twilight 5:26 AM MDT 9:04 PM MDT
Astronomical Twilight 4:45 AM MDT 9:45 PM MDT
Moon 1:50 PM MDT 11:33 PM MDT
Length of Visible Light 14h 22m
Length of Day
13h 19m
Tomorrow will be 3m 14s shorter.
Waxing Crescent, 43% of the Moon is Illuminated
Today
Waxing Crescent
Sep 2
First Quarter
Sep 8
Full
Sep 15
Last Quarter
Sep 24
New

Today's Extremes

State Highs State Lows

Community

WunderPhotos

Upload Photos

1,749,359 photos uploaded!

Nearby

Snow Depth

Station Depth Elevation
Crystal Lake 0 in 6050 ft
Spur Park 0 in 8100 ft
Porcupine 0 in 6500 ft
Onion Park 0 in 7410 ft
Stringer Creek 0 in 6550 ft

Earthquake Activity

City Distance Mag. Time & Date
No recent earthquake activity has been reported nearby.
Minimum magnitude displayed is 2.5.

Coastal Water Temperatures

Place Temperature
No Stations Reporting

Nearby Weather Stations